SPKOL EKCH-EDDN
Flight info
| Callsign | SPKOL |
|---|---|
| Flight time | 1h 5m |
| Altitude | 34000 |
| Route | SALLO M736 PEROM DCT NUVEN DCT MAG M736 BARAP M736 GALMA/N0446F290 M736 TABAT Q244 NIBIL Q244 PIVIR PIVIR1V |
| Aircraft | B738/M-SDE2E3FGHIRWXY/LB1 |
Departure
| Time | 2026-04-24 14:53 |
|---|---|
| Airport | Copenhagen Kastrup Airport (EKCH) |
Arrival
| Time | 2026-04-24 15:59 |
|---|---|
| Airport | Nuremberg Airport (EDDN) |
| Time | Latitude | Longitude | Altitude | Speed | Heading |
|---|---|---|---|---|---|
| 2026-04-24 14:40 | 55.62519 | 12.65573 | 27 ft | 0 kts | 24° |
| 2026-04-24 14:46 | 55.62514 | 12.65570 | 26 ft | 2 kts | 23° |
| 2026-04-24 14:46 | 55.62496 | 12.65557 | 27 ft | 3 kts | 17° |
| 2026-04-24 14:47 | 55.62483 | 12.65551 | 24 ft | 3 kts | 11° |
| 2026-04-24 14:47 | 55.62457 | 12.65548 | 24 ft | 3 kts | 339° |
| 2026-04-24 14:47 | 55.62445 | 12.65560 | 26 ft | 2 kts | 281° |
| 2026-04-24 14:47 | 55.62444 | 12.65567 | 27 ft | 0 kts | 269° |
| 2026-04-24 14:49 | 55.62444 | 12.65564 | 27 ft | 4 kts | 268° |
| 2026-04-24 14:49 | 55.62439 | 12.65401 | 23 ft | 15 kts | 269° |
| 2026-04-24 14:50 | 55.62419 | 12.65219 | 24 ft | 16 kts | 214° |
| 2026-04-24 14:50 | 55.62308 | 12.65201 | 23 ft | 17 kts | 186° |
| 2026-04-24 14:50 | 55.62195 | 12.65161 | 26 ft | 18 kts | 209° |
| 2026-04-24 14:50 | 55.62091 | 12.65051 | 26 ft | 18 kts | 212° |
| 2026-04-24 14:51 | 55.61962 | 12.64898 | 24 ft | 33 kts | 213° |
| 2026-04-24 14:51 | 55.61763 | 12.64667 | 23 ft | 34 kts | 213° |
| 2026-04-24 14:51 | 55.61569 | 12.64442 | 25 ft | 32 kts | 211° |
| 2026-04-24 14:51 | 55.61418 | 12.64271 | 26 ft | 23 kts | 213° |
| 2026-04-24 14:52 | 55.61287 | 12.64121 | 24 ft | 22 kts | 212° |
| 2026-04-24 14:52 | 55.61200 | 12.64022 | 24 ft | 24 kts | 213° |
| 2026-04-24 14:52 | 55.60949 | 12.63730 | 24 ft | 35 kts | 213° |
| 2026-04-24 14:52 | 55.60842 | 12.63609 | 23 ft | 13 kts | 208° |
| 2026-04-24 14:53 | 55.60716 | 12.63745 | 26 ft | 34 kts | 123° |
| 2026-04-24 14:53 | 55.60861 | 12.64141 | 24 ft | 79 kts | 40° |
| 2026-04-24 14:53 | 55.61249 | 12.64748 | 28 ft | 144 kts | 42° |
| 2026-04-24 14:53 | 55.62472 | 12.66659 | 1063 ft | 193 kts | 36° |
| 2026-04-24 14:54 | 55.63191 | 12.67746 | 1556 ft | 219 kts | 36° |
| 2026-04-24 14:54 | 55.64398 | 12.69585 | 2609 ft | 227 kts | 35° |
| 2026-04-24 14:54 | 55.65568 | 12.71392 | 3770 ft | 223 kts | 34° |
| 2026-04-24 14:54 | 55.66768 | 12.73205 | 4554 ft | 235 kts | 36° |
| 2026-04-24 14:55 | 55.67703 | 12.75777 | 5190 ft | 266 kts | 70° |
| 2026-04-24 14:55 | 55.67610 | 12.80256 | 6441 ft | 289 kts | 106° |
| 2026-04-24 14:55 | 55.66999 | 12.82430 | 7044 ft | 297 kts | 124° |
| 2026-04-24 14:55 | 55.65519 | 12.84960 | 7951 ft | 304 kts | 147° |
| 2026-04-24 14:56 | 55.63638 | 12.86712 | 8928 ft | 308 kts | 158° |
| 2026-04-24 14:56 | 55.61643 | 12.88164 | 9852 ft | 313 kts | 161° |
| 2026-04-24 14:56 | 55.59583 | 12.89572 | 10560 ft | 326 kts | 161° |
| 2026-04-24 14:56 | 55.57372 | 12.91081 | 10786 ft | 355 kts | 161° |
| 2026-04-24 14:57 | 55.54983 | 12.92722 | 11120 ft | 379 kts | 161° |
| 2026-04-24 14:57 | 55.52484 | 12.94365 | 11829 ft | 387 kts | 161° |
| 2026-04-24 14:57 | 55.49950 | 12.96058 | 12683 ft | 391 kts | 161° |
| 2026-04-24 14:57 | 55.47402 | 12.97821 | 13532 ft | 396 kts | 160° |
| 2026-04-24 14:58 | 55.44864 | 12.99632 | 14284 ft | 401 kts | 160° |
| 2026-04-24 14:58 | 55.43114 | 13.00903 | 14791 ft | 404 kts | 160° |
| 2026-04-24 14:58 | 55.41102 | 13.02379 | 15388 ft | 407 kts | 160° |
| 2026-04-24 14:58 | 55.38479 | 13.04318 | 16160 ft | 411 kts | 160° |
| 2026-04-24 14:59 | 55.35831 | 13.06280 | 16903 ft | 415 kts | 160° |
| 2026-04-24 14:59 | 55.33156 | 13.08262 | 17627 ft | 420 kts | 160° |
| 2026-04-24 14:59 | 55.30448 | 13.10267 | 18348 ft | 424 kts | 160° |
| 2026-04-24 14:59 | 55.27715 | 13.12285 | 18955 ft | 428 kts | 160° |
| 2026-04-24 15:00 | 55.24952 | 13.14323 | 19550 ft | 433 kts | 160° |
| 2026-04-24 15:00 | 55.22156 | 13.16380 | 20121 ft | 439 kts | 160° |
| 2026-04-24 15:00 | 55.19327 | 13.18459 | 20707 ft | 443 kts | 160° |
| 2026-04-24 15:00 | 55.16511 | 13.20526 | 21270 ft | 447 kts | 160° |
| 2026-04-24 15:01 | 55.13570 | 13.22289 | 21867 ft | 446 kts | 172° |
| 2026-04-24 15:01 | 55.10510 | 13.22731 | 22503 ft | 439 kts | 188° |
| 2026-04-24 15:01 | 55.07514 | 13.21959 | 23089 ft | 433 kts | 201° |
| 2026-04-24 15:01 | 55.04616 | 13.20468 | 23606 ft | 436 kts | 202° |
| 2026-04-24 15:02 | 55.01702 | 13.18948 | 24085 ft | 439 kts | 202° |
| 2026-04-24 15:02 | 54.98766 | 13.17434 | 24585 ft | 441 kts | 202° |
| 2026-04-24 15:02 | 54.95813 | 13.15931 | 25090 ft | 443 kts | 202° |
| 2026-04-24 15:02 | 54.92844 | 13.14439 | 25573 ft | 445 kts | 202° |
| 2026-04-24 15:03 | 54.89898 | 13.12971 | 26031 ft | 448 kts | 201° |
| 2026-04-24 15:03 | 54.87870 | 13.11967 | 26337 ft | 449 kts | 201° |
| 2026-04-24 15:03 | 54.86919 | 13.11497 | 26480 ft | 450 kts | 201° |
| 2026-04-24 15:03 | 54.84348 | 13.10229 | 26868 ft | 452 kts | 201° |
| 2026-04-24 15:04 | 54.81313 | 13.08736 | 27281 ft | 454 kts | 201° |
| 2026-04-24 15:04 | 54.78264 | 13.07239 | 27735 ft | 456 kts | 202° |
| 2026-04-24 15:04 | 54.75206 | 13.05740 | 28171 ft | 458 kts | 202° |
| 2026-04-24 15:04 | 54.72131 | 13.04234 | 28570 ft | 460 kts | 202° |
| 2026-04-24 15:05 | 54.69042 | 13.02724 | 28955 ft | 463 kts | 202° |
| 2026-04-24 15:05 | 54.65979 | 13.01227 | 29327 ft | 465 kts | 202° |
| 2026-04-24 15:05 | 54.62857 | 12.99705 | 29701 ft | 467 kts | 202° |
| 2026-04-24 15:05 | 54.59724 | 12.98180 | 30126 ft | 468 kts | 202° |
| 2026-04-24 15:06 | 54.56597 | 12.96664 | 30559 ft | 466 kts | 202° |
| 2026-04-24 15:06 | 54.53490 | 12.95161 | 31081 ft | 462 kts | 202° |
| 2026-04-24 15:06 | 54.50401 | 12.93668 | 31555 ft | 460 kts | 202° |
| 2026-04-24 15:06 | 54.47324 | 12.92181 | 31934 ft | 460 kts | 202° |
| 2026-04-24 15:07 | 54.44245 | 12.90692 | 32295 ft | 460 kts | 202° |
| 2026-04-24 15:07 | 54.41165 | 12.89206 | 32702 ft | 459 kts | 202° |
| 2026-04-24 15:07 | 54.38097 | 12.87729 | 33143 ft | 457 kts | 202° |
| 2026-04-24 15:07 | 54.35037 | 12.86258 | 33569 ft | 456 kts | 202° |
| 2026-04-24 15:08 | 54.32025 | 12.84812 | 33900 ft | 455 kts | 202° |
| 2026-04-24 15:08 | 54.28989 | 12.83359 | 34040 ft | 452 kts | 202° |
| 2026-04-24 15:08 | 54.25961 | 12.81910 | 34050 ft | 452 kts | 202° |
| 2026-04-24 15:09 | 54.19901 | 12.79013 | 34062 ft | 453 kts | 202° |
| 2026-04-24 15:09 | 54.13821 | 12.76116 | 34065 ft | 454 kts | 202° |
| 2026-04-24 15:10 | 54.07724 | 12.73221 | 34054 ft | 455 kts | 202° |
| 2026-04-24 15:10 | 54.01661 | 12.70354 | 34065 ft | 455 kts | 202° |
| 2026-04-24 15:11 | 53.95555 | 12.67475 | 34067 ft | 455 kts | 202° |
| 2026-04-24 15:11 | 53.89454 | 12.64607 | 34068 ft | 455 kts | 202° |
| 2026-04-24 15:12 | 53.83359 | 12.61750 | 34048 ft | 454 kts | 202° |
| 2026-04-24 15:12 | 53.74291 | 12.57516 | 34060 ft | 452 kts | 202° |
| 2026-04-24 15:13 | 53.68231 | 12.54695 | 34066 ft | 451 kts | 202° |
| 2026-04-24 15:13 | 53.62181 | 12.51888 | 34068 ft | 451 kts | 202° |
| 2026-04-24 15:14 | 53.56134 | 12.49091 | 34058 ft | 450 kts | 202° |
| 2026-04-24 15:14 | 53.50140 | 12.46327 | 34057 ft | 449 kts | 202° |
| 2026-04-24 15:15 | 53.44113 | 12.43556 | 34074 ft | 449 kts | 202° |
| 2026-04-24 15:15 | 53.38089 | 12.40793 | 34078 ft | 449 kts | 202° |
| 2026-04-24 15:16 | 53.32064 | 12.38039 | 34074 ft | 448 kts | 202° |
| 2026-04-24 15:16 | 53.26086 | 12.35314 | 34082 ft | 448 kts | 202° |
| 2026-04-24 15:17 | 53.20070 | 12.32580 | 34091 ft | 448 kts | 202° |
| 2026-04-24 15:17 | 53.14057 | 12.29855 | 34089 ft | 448 kts | 202° |
| 2026-04-24 15:18 | 53.08041 | 12.27137 | 34084 ft | 447 kts | 201° |
| 2026-04-24 15:18 | 53.02078 | 12.24451 | 34090 ft | 447 kts | 201° |
| 2026-04-24 15:19 | 52.96081 | 12.21757 | 34098 ft | 446 kts | 201° |
| 2026-04-24 15:19 | 52.90087 | 12.19071 | 34099 ft | 446 kts | 201° |
| 2026-04-24 15:20 | 52.84092 | 12.16393 | 34100 ft | 446 kts | 201° |
| 2026-04-24 15:20 | 52.78097 | 12.13723 | 34101 ft | 446 kts | 201° |
| 2026-04-24 15:21 | 52.72144 | 12.11079 | 34110 ft | 446 kts | 201° |
| 2026-04-24 15:21 | 52.66148 | 12.08423 | 34108 ft | 446 kts | 201° |
| 2026-04-24 15:22 | 52.60149 | 12.05773 | 34101 ft | 446 kts | 201° |
| 2026-04-24 15:23 | 52.51199 | 12.01836 | 34119 ft | 446 kts | 201° |
| 2026-04-24 15:23 | 52.42212 | 11.97897 | 34124 ft | 446 kts | 201° |
| 2026-04-24 15:25 | 52.27233 | 11.91369 | 34130 ft | 446 kts | 201° |
| 2026-04-24 15:26 | 52.12274 | 11.84895 | 34128 ft | 446 kts | 200° |
| 2026-04-24 15:27 | 51.94426 | 11.76603 | 34153 ft | 443 kts | 206° |
| 2026-04-24 15:29 | 51.77029 | 11.66401 | 34154 ft | 444 kts | 205° |
| 2026-04-24 15:31 | 51.56715 | 11.54735 | 34146 ft | 444 kts | 205° |
| 2026-04-24 15:33 | 51.34689 | 11.45404 | 34146 ft | 459 kts | 180° |
| 2026-04-24 15:34 | 51.18779 | 11.47151 | 34136 ft | 459 kts | 181° |
| 2026-04-24 15:35 | 51.02814 | 11.48225 | 34074 ft | 459 kts | 186° |
| 2026-04-24 15:35 | 50.99610 | 11.48017 | 33758 ft | 461 kts | 187° |
| 2026-04-24 15:36 | 50.96415 | 11.47787 | 33494 ft | 459 kts | 186° |
| 2026-04-24 15:36 | 50.90073 | 11.47373 | 32976 ft | 461 kts | 186° |
| 2026-04-24 15:36 | 50.86868 | 11.47195 | 32711 ft | 462 kts | 186° |
| 2026-04-24 15:37 | 50.83655 | 11.47030 | 32455 ft | 462 kts | 185° |
| 2026-04-24 15:37 | 50.80443 | 11.46875 | 31696 ft | 463 kts | 185° |
| 2026-04-24 15:37 | 50.77230 | 11.46724 | 30961 ft | 462 kts | 185° |
| 2026-04-24 15:37 | 50.74017 | 11.46574 | 30290 ft | 460 kts | 184° |
| 2026-04-24 15:38 | 50.70837 | 11.46427 | 29642 ft | 455 kts | 184° |
| 2026-04-24 15:38 | 50.67727 | 11.46284 | 29023 ft | 450 kts | 184° |
| 2026-04-24 15:38 | 50.64613 | 11.46139 | 28433 ft | 445 kts | 184° |
| 2026-04-24 15:38 | 50.61533 | 11.45995 | 27832 ft | 441 kts | 184° |
| 2026-04-24 15:39 | 50.59065 | 11.45879 | 27363 ft | 437 kts | 185° |
| 2026-04-24 15:39 | 50.56035 | 11.45736 | 26785 ft | 434 kts | 185° |
| 2026-04-24 15:39 | 50.53031 | 11.45594 | 26218 ft | 430 kts | 185° |
| 2026-04-24 15:39 | 50.50055 | 11.45454 | 25660 ft | 427 kts | 185° |
| 2026-04-24 15:40 | 50.47096 | 11.45315 | 25094 ft | 424 kts | 185° |
| 2026-04-24 15:40 | 50.44192 | 11.45178 | 24525 ft | 422 kts | 185° |
| 2026-04-24 15:40 | 50.41258 | 11.45039 | 23951 ft | 421 kts | 184° |
| 2026-04-24 15:40 | 50.38336 | 11.44902 | 23295 ft | 420 kts | 184° |
| 2026-04-24 15:41 | 50.35425 | 11.44766 | 22703 ft | 417 kts | 184° |
| 2026-04-24 15:41 | 50.32535 | 11.44631 | 22118 ft | 414 kts | 184° |
| 2026-04-24 15:41 | 50.29673 | 11.44497 | 21550 ft | 410 kts | 184° |
| 2026-04-24 15:41 | 50.26834 | 11.44366 | 20998 ft | 406 kts | 184° |
| 2026-04-24 15:42 | 50.24019 | 11.44235 | 20455 ft | 403 kts | 184° |
| 2026-04-24 15:42 | 50.21226 | 11.44105 | 19906 ft | 400 kts | 184° |
| 2026-04-24 15:42 | 50.18488 | 11.43978 | 19363 ft | 397 kts | 184° |
| 2026-04-24 15:42 | 50.15732 | 11.43850 | 18815 ft | 395 kts | 184° |
| 2026-04-24 15:43 | 50.12987 | 11.43722 | 18237 ft | 394 kts | 184° |
| 2026-04-24 15:43 | 50.10256 | 11.43596 | 17639 ft | 391 kts | 184° |
| 2026-04-24 15:43 | 50.07546 | 11.43471 | 17071 ft | 388 kts | 184° |
| 2026-04-24 15:43 | 50.04859 | 11.43347 | 16526 ft | 385 kts | 183° |
| 2026-04-24 15:44 | 50.02194 | 11.43224 | 16005 ft | 382 kts | 183° |
| 2026-04-24 15:44 | 49.99551 | 11.43103 | 15473 ft | 379 kts | 183° |
| 2026-04-24 15:44 | 49.96926 | 11.42982 | 14954 ft | 376 kts | 183° |
| 2026-04-24 15:44 | 49.94350 | 11.42863 | 14414 ft | 375 kts | 183° |
| 2026-04-24 15:45 | 49.91751 | 11.42743 | 13884 ft | 373 kts | 182° |
| 2026-04-24 15:45 | 49.89155 | 11.42624 | 13293 ft | 373 kts | 182° |
| 2026-04-24 15:45 | 49.86572 | 11.42506 | 12745 ft | 370 kts | 182° |
| 2026-04-24 15:45 | 49.84005 | 11.42389 | 12195 ft | 368 kts | 182° |
| 2026-04-24 15:46 | 49.81440 | 11.42272 | 11569 ft | 369 kts | 182° |
| 2026-04-24 15:46 | 49.78879 | 11.42155 | 11038 ft | 367 kts | 183° |
| 2026-04-24 15:46 | 49.76345 | 11.42039 | 10717 ft | 359 kts | 182° |
| 2026-04-24 15:46 | 49.73891 | 11.41928 | 10551 ft | 347 kts | 183° |
| 2026-04-24 15:47 | 49.71548 | 11.41822 | 10394 ft | 336 kts | 182° |
| 2026-04-24 15:47 | 49.69245 | 11.41731 | 10249 ft | 326 kts | 180° |
| 2026-04-24 15:47 | 49.67071 | 11.42423 | 10096 ft | 317 kts | 154° |
| 2026-04-24 15:47 | 49.65277 | 11.44276 | 9861 ft | 309 kts | 133° |
| 2026-04-24 15:48 | 49.63891 | 11.46752 | 9541 ft | 301 kts | 127° |
| 2026-04-24 15:48 | 49.62601 | 11.49240 | 9208 ft | 293 kts | 126° |
| 2026-04-24 15:48 | 49.61350 | 11.51667 | 8890 ft | 285 kts | 127° |
| 2026-04-24 15:48 | 49.60127 | 11.54019 | 8603 ft | 277 kts | 127° |
| 2026-04-24 15:49 | 49.58945 | 11.56268 | 8330 ft | 271 kts | 127° |
| 2026-04-24 15:49 | 49.57758 | 11.58515 | 8063 ft | 272 kts | 127° |
| 2026-04-24 15:49 | 49.56547 | 11.60804 | 7808 ft | 280 kts | 127° |
| 2026-04-24 15:49 | 49.55269 | 11.63122 | 7525 ft | 287 kts | 135° |
| 2026-04-24 15:50 | 49.53549 | 11.64621 | 7201 ft | 287 kts | 168° |
| 2026-04-24 15:50 | 49.51578 | 11.64747 | 6925 ft | 283 kts | 189° |
| 2026-04-24 15:50 | 49.49637 | 11.64281 | 6628 ft | 282 kts | 191° |
| 2026-04-24 15:50 | 49.47723 | 11.63683 | 6398 ft | 277 kts | 201° |
| 2026-04-24 15:51 | 49.46159 | 11.62127 | 6254 ft | 263 kts | 231° |
| 2026-04-24 15:51 | 49.45253 | 11.59794 | 6144 ft | 249 kts | 255° |
| 2026-04-24 15:51 | 49.45097 | 11.57289 | 6043 ft | 234 kts | 281° |
| 2026-04-24 15:51 | 49.45341 | 11.54871 | 5965 ft | 225 kts | 282° |
| 2026-04-24 15:52 | 49.45573 | 11.52528 | 5862 ft | 218 kts | 281° |
| 2026-04-24 15:52 | 49.45792 | 11.50270 | 5757 ft | 210 kts | 281° |
| 2026-04-24 15:52 | 49.46001 | 11.48070 | 5593 ft | 205 kts | 281° |
| 2026-04-24 15:52 | 49.46201 | 11.45956 | 5372 ft | 194 kts | 281° |
| 2026-04-24 15:53 | 49.46386 | 11.43979 | 5179 ft | 180 kts | 280° |
| 2026-04-24 15:53 | 49.46560 | 11.42146 | 4964 ft | 166 kts | 280° |
| 2026-04-24 15:53 | 49.46717 | 11.40490 | 4883 ft | 149 kts | 280° |
| 2026-04-24 15:53 | 49.46868 | 11.38918 | 4819 ft | 154 kts | 281° |
| 2026-04-24 15:54 | 49.47021 | 11.37300 | 4619 ft | 151 kts | 281° |
| 2026-04-24 15:54 | 49.47173 | 11.35708 | 4405 ft | 149 kts | 281° |
| 2026-04-24 15:54 | 49.47321 | 11.34137 | 4224 ft | 149 kts | 280° |
| 2026-04-24 15:54 | 49.47472 | 11.32573 | 4021 ft | 147 kts | 280° |
| 2026-04-24 15:55 | 49.47623 | 11.31000 | 3823 ft | 151 kts | 280° |
| 2026-04-24 15:55 | 49.47776 | 11.29402 | 3637 ft | 151 kts | 281° |
| 2026-04-24 15:55 | 49.47930 | 11.27802 | 3432 ft | 150 kts | 280° |
| 2026-04-24 15:55 | 49.48072 | 11.26292 | 3225 ft | 140 kts | 281° |
| 2026-04-24 15:56 | 49.48215 | 11.24826 | 3079 ft | 140 kts | 281° |
| 2026-04-24 15:56 | 49.48363 | 11.23304 | 2870 ft | 147 kts | 280° |
| 2026-04-24 15:56 | 49.48513 | 11.21747 | 2677 ft | 147 kts | 280° |
| 2026-04-24 15:56 | 49.48663 | 11.20197 | 2489 ft | 145 kts | 280° |
| 2026-04-24 15:57 | 49.48805 | 11.18684 | 2222 ft | 142 kts | 280° |
| 2026-04-24 15:57 | 49.48930 | 11.17181 | 1998 ft | 142 kts | 281° |
| 2026-04-24 15:57 | 49.49103 | 11.15659 | 1828 ft | 148 kts | 281° |
| 2026-04-24 15:57 | 49.49261 | 11.14075 | 1651 ft | 151 kts | 278° |
| 2026-04-24 15:58 | 49.49399 | 11.12495 | 1464 ft | 151 kts | 281° |
| 2026-04-24 15:58 | 49.49553 | 11.10939 | 1260 ft | 144 kts | 279° |
| 2026-04-24 15:58 | 49.49704 | 11.09440 | 1062 ft | 140 kts | 281° |
| 2026-04-24 15:58 | 49.49831 | 11.08196 | 1032 ft | 87 kts | 278° |
| 2026-04-24 15:59 | 49.49864 | 11.07674 | 1033 ft | 21 kts | 230° |
| 2026-04-24 15:59 | 49.49763 | 11.07699 | 1033 ft | 16 kts | 153° |
| 2026-04-24 15:59 | 49.49750 | 11.07709 | 1033 ft | 1 kts | 153° |
| 2026-04-24 15:59 | 49.49741 | 11.07716 | 1032 ft | 2 kts | 154° |
| 2026-04-24 16:00 | 49.49737 | 11.07719 | 1032 ft | 1 kts | 154° |
| 2026-04-24 16:00 | 49.49735 | 11.07721 | 1032 ft | 1 kts | 154° |
| 2026-04-24 16:00 | 49.49726 | 11.07728 | 1032 ft | 2 kts | 154° |
| 2026-04-24 16:00 | 49.49698 | 11.07750 | 1031 ft | 11 kts | 152° |
| 2026-04-24 16:01 | 49.49607 | 11.07749 | 1029 ft | 12 kts | 221° |
| 2026-04-24 16:01 | 49.49597 | 11.07730 | 1029 ft | 2 kts | 235° |
| 2026-04-24 16:01 | 49.49579 | 11.07670 | 1028 ft | 3 kts | 204° |
| 2026-04-24 16:01 | 49.49531 | 11.07660 | 1025 ft | 0 kts | 188° |